createdAt,value
2018-04-11T00:00:13.733Z,1.50
2018-04-11T00:01:13.709Z,1.70
2018-04-11T00:02:13.697Z,1.10
2018-04-11T00:03:13.683Z,1.60
2018-04-11T00:04:13.673Z,1.30
2018-04-11T00:05:13.660Z,1.80
2018-04-11T00:06:13.649Z,1.70
2018-04-11T00:07:13.640Z,1.40
2018-04-11T00:08:13.616Z,1.20
2018-04-11T00:09:13.601Z,1.80
2018-04-11T00:10:13.590Z,1.80
2018-04-11T00:11:13.577Z,1.80
2018-04-11T00:12:13.572Z,2.10
2018-04-11T00:13:13.550Z,2.10
2018-04-11T00:14:13.547Z,1.40
2018-04-11T00:15:13.525Z,1.40
2018-04-11T00:16:13.511Z,1.60
2018-04-11T00:17:13.505Z,1.50
2018-04-11T00:18:13.491Z,1.30
2018-04-11T00:19:13.474Z,1.40
2018-04-11T00:20:13.462Z,1.30
2018-04-11T00:21:13.448Z,1.50
2018-04-11T00:22:13.439Z,1.30
2018-04-11T00:23:13.426Z,1.40
2018-04-11T00:24:13.408Z,1.40
2018-04-11T00:25:13.400Z,1.80
2018-04-11T00:26:13.384Z,1.30
2018-04-11T00:27:13.368Z,1.20
2018-04-11T00:28:13.354Z,1.40
2018-04-11T00:29:13.340Z,1.40
2018-04-11T00:30:13.325Z,1.60
2018-04-11T00:31:13.312Z,1.60
2018-04-11T00:32:13.304Z,1.40
2018-04-11T00:33:13.282Z,1.60
2018-04-11T00:34:13.274Z,1.50
2018-04-11T00:35:13.260Z,1.60
2018-04-11T00:36:13.242Z,1.50
2018-04-11T00:37:13.233Z,1.40
2018-04-11T00:38:13.214Z,1.60
2018-04-11T00:39:13.202Z,1.30
2018-04-11T00:40:13.197Z,1.40
2018-04-11T00:41:13.172Z,1.70
2018-04-11T00:42:13.159Z,1.50
2018-04-11T00:43:13.154Z,1.30
2018-04-11T00:44:13.135Z,1.60
2018-04-11T00:45:13.131Z,1.60
2018-04-11T00:46:13.105Z,1.70
2018-04-11T00:47:13.092Z,1.60
2018-04-11T00:48:13.081Z,1.50
2018-04-11T00:49:13.064Z,1.30
2018-04-11T00:50:13.055Z,1.30
2018-04-11T00:51:13.040Z,1.10
2018-04-11T00:52:13.034Z,1.40
2018-04-11T00:53:13.013Z,1.70
2018-04-11T00:54:13.004Z,1.50
2018-04-11T00:55:12.982Z,1.70
2018-04-11T00:56:12.972Z,1.50
2018-04-11T00:57:12.959Z,1.70
2018-04-11T00:58:12.945Z,1.60
2018-04-11T00:59:12.931Z,1.50
2018-04-11T01:00:12.915Z,1.70
2018-04-11T01:01:12.900Z,1.30
2018-04-11T01:02:12.886Z,1.40
2018-04-11T01:03:12.876Z,1.50
2018-04-11T01:04:12.858Z,1.50
2018-04-11T01:05:12.844Z,1.50
2018-04-11T01:06:12.837Z,1.60
2018-04-11T01:07:12.820Z,1.50
2018-04-11T01:08:12.805Z,1.30
2018-04-11T01:09:12.790Z,1.40
2018-04-11T01:10:12.774Z,1.30
2018-04-11T01:11:12.769Z,1.50
2018-04-11T01:12:12.749Z,1.40
2018-04-11T01:13:12.735Z,1.40
2018-04-11T01:14:12.724Z,1.30
2018-04-11T01:15:12.710Z,1.30
2018-04-11T01:16:12.693Z,1.50
2018-04-11T01:17:12.679Z,1.60
2018-04-11T01:18:12.668Z,1.60
2018-04-11T01:19:12.652Z,1.50
2018-04-11T01:20:12.641Z,1.50
2018-04-11T01:21:12.626Z,1.60
2018-04-11T01:22:12.652Z,1.80
2018-04-11T01:23:12.599Z,1.30
2018-04-11T01:24:12.588Z,1.70
2018-04-11T01:25:12.576Z,1.50
2018-04-11T01:26:12.563Z,1.90
2018-04-11T01:27:12.543Z,1.50
2018-04-11T01:28:12.529Z,1.70
2018-04-11T01:29:12.518Z,1.80
2018-04-11T01:30:12.503Z,1.70
2018-04-11T01:31:12.487Z,1.60
2018-04-11T01:32:12.476Z,1.60
2018-04-11T01:33:12.461Z,1.50
2018-04-11T01:34:12.446Z,1.70
2018-04-11T01:35:12.439Z,1.60
2018-04-11T01:36:12.422Z,1.60
2018-04-11T01:37:12.405Z,1.90
2018-04-11T01:38:12.396Z,1.70
2018-04-11T01:39:12.378Z,1.70
2018-04-11T01:40:12.363Z,1.30
2018-04-11T01:41:12.357Z,1.70
2018-04-11T01:42:12.337Z,1.80
2018-04-11T01:43:12.327Z,2.00
2018-04-11T01:44:12.307Z,2.00
2018-04-11T01:45:12.294Z,2.10
2018-04-11T01:46:12.293Z,2.00
2018-04-11T01:47:12.266Z,2.10
2018-04-11T01:48:12.256Z,2.00
2018-04-11T01:49:12.254Z,2.20
2018-04-11T01:50:12.233Z,1.80
2018-04-11T01:51:12.211Z,1.80
2018-04-11T01:52:12.203Z,2.10
2018-04-11T01:53:12.185Z,1.80
2018-04-11T01:54:12.170Z,2.30
2018-04-11T01:55:12.157Z,1.80
2018-04-11T01:56:12.143Z,2.30
2018-04-11T01:57:12.135Z,1.80
2018-04-11T01:58:12.114Z,1.90
2018-04-11T01:59:12.100Z,2.10
2018-04-11T02:00:12.088Z,2.20
2018-04-11T02:01:12.074Z,1.70
2018-04-11T02:02:12.061Z,2.60
2018-04-11T02:03:12.047Z,2.00
2018-04-11T02:04:12.032Z,2.00
2018-04-11T02:05:12.269Z,2.10
2018-04-11T02:06:12.013Z,2.20
2018-04-11T02:07:11.990Z,2.10
2018-04-11T02:08:11.983Z,1.80
2018-04-11T02:09:11.962Z,2.30
2018-04-11T02:10:11.949Z,2.00
2018-04-11T02:11:11.934Z,1.80
2018-04-11T02:12:11.921Z,2.10
2018-04-11T02:13:11.906Z,2.20
2018-04-11T02:14:11.893Z,1.70
2018-04-11T02:15:11.877Z,2.10
2018-04-11T02:16:11.870Z,2.10
2018-04-11T02:17:11.854Z,1.70
2018-04-11T02:18:11.842Z,1.60
2018-04-11T02:19:11.827Z,1.90
2018-04-11T02:20:11.808Z,1.90
2018-04-11T02:21:11.791Z,1.80
2018-04-11T02:22:11.779Z,2.10
2018-04-11T02:23:11.767Z,1.60
2018-04-11T02:24:11.750Z,1.90
2018-04-11T02:25:11.742Z,1.60
2018-04-11T02:26:11.728Z,2.10
2018-04-11T02:27:11.708Z,1.50
2018-04-11T02:28:11.694Z,1.60
2018-04-11T02:29:11.684Z,2.00
2018-04-11T02:30:11.674Z,1.80
2018-04-11T02:31:11.654Z,1.70
2018-04-11T02:32:11.642Z,1.90
2018-04-11T02:33:11.623Z,1.80
2018-04-11T02:34:11.614Z,1.80
2018-04-11T02:35:11.596Z,1.70
2018-04-11T02:36:11.588Z,1.90
2018-04-11T02:37:11.573Z,1.70
2018-04-11T02:38:11.551Z,1.90
2018-04-11T02:39:11.540Z,1.60
2018-04-11T02:40:11.533Z,1.70
2018-04-11T02:41:11.515Z,1.60
2018-04-11T02:42:11.500Z,1.60
2018-04-11T02:43:11.479Z,1.30
2018-04-11T02:44:11.466Z,1.80
2018-04-11T02:45:11.453Z,1.90
2018-04-11T02:46:11.441Z,1.80
2018-04-11T02:47:11.428Z,1.90
2018-04-11T02:48:11.407Z,1.60
2018-04-11T02:49:11.390Z,2.00
2018-04-11T02:50:11.383Z,1.60
2018-04-11T02:51:11.363Z,1.80
2018-04-11T02:52:11.355Z,1.70
2018-04-11T02:53:11.336Z,1.90
2018-04-11T02:54:11.327Z,2.00
2018-04-11T02:55:11.308Z,1.60
2018-04-11T02:56:11.290Z,2.10
2018-04-11T02:57:11.279Z,1.90
2018-04-11T02:58:11.261Z,1.90
2018-04-11T02:59:11.247Z,1.90
2018-04-11T03:00:11.232Z,1.80
2018-04-11T03:01:11.219Z,1.90
2018-04-11T03:02:11.203Z,1.80
2018-04-11T03:03:11.189Z,1.80
2018-04-11T03:04:11.180Z,1.90
2018-04-11T03:05:11.159Z,2.00
2018-04-11T03:06:11.146Z,1.70
2018-04-11T03:07:11.141Z,1.90
2018-04-11T03:08:11.115Z,1.70
2018-04-11T03:09:11.101Z,2.10
2018-04-11T03:10:11.088Z,1.80
2018-04-11T03:11:11.074Z,2.00
2018-04-11T03:12:11.062Z,2.30
2018-04-11T03:13:11.043Z,2.10
2018-04-11T03:14:11.034Z,2.30
2018-04-11T03:15:11.020Z,1.60
2018-04-11T03:16:10.999Z,1.90
2018-04-11T03:17:10.990Z,2.20
2018-04-11T03:18:10.969Z,2.20
2018-04-11T03:19:10.956Z,1.80
2018-04-11T03:20:10.950Z,2.00
2018-04-11T03:21:10.930Z,2.00
2018-04-11T03:22:10.919Z,2.00
2018-04-11T03:23:10.896Z,2.20
2018-04-11T03:24:10.881Z,2.00
2018-04-11T03:25:10.868Z,2.20
2018-04-11T03:26:10.859Z,1.90
2018-04-11T03:27:10.839Z,2.10
2018-04-11T03:28:10.822Z,2.10
2018-04-11T03:29:10.807Z,1.80
2018-04-11T03:30:10.792Z,2.30
2018-04-11T03:31:10.784Z,2.50
2018-04-11T03:32:10.762Z,2.30
2018-04-11T03:33:10.747Z,2.30
2018-04-11T03:34:10.739Z,2.20
2018-04-11T03:35:10.726Z,2.30
2018-04-11T03:36:10.703Z,2.60
2018-04-11T03:37:10.689Z,2.20
2018-04-11T03:38:10.676Z,2.50
2018-04-11T03:39:10.668Z,2.60
2018-04-11T03:40:10.647Z,2.20
2018-04-11T03:41:10.630Z,2.70
2018-04-11T03:42:10.627Z,2.10
2018-04-11T03:43:10.603Z,2.70
2018-04-11T03:44:10.585Z,2.80
2018-04-11T03:45:10.572Z,2.70
2018-04-11T03:46:10.559Z,2.30
2018-04-11T03:47:10.548Z,2.90
2018-04-11T03:48:10.528Z,2.90
2018-04-11T03:49:10.515Z,2.80
2018-04-11T03:50:10.500Z,2.60
2018-04-11T03:51:10.483Z,2.50
2018-04-11T03:52:10.475Z,2.60
2018-04-11T03:53:10.456Z,2.40
2018-04-11T03:54:10.440Z,2.30
2018-04-11T03:55:10.430Z,3.00
2018-04-11T03:56:10.413Z,3.20
2018-04-11T03:57:10.393Z,3.20
2018-04-11T03:58:10.377Z,3.20
2018-04-11T03:59:10.364Z,3.50
2018-04-11T04:00:10.349Z,2.90
2018-04-11T04:01:10.353Z,2.80
2018-04-11T04:02:10.319Z,2.70
2018-04-11T04:03:10.304Z,3.50
2018-04-11T04:04:10.296Z,3.30
2018-04-11T04:05:10.272Z,2.70
2018-04-11T04:06:10.259Z,3.20
2018-04-11T04:07:10.242Z,3.00
2018-04-11T04:08:10.234Z,3.10
2018-04-11T04:09:10.212Z,3.40
2018-04-11T04:10:10.198Z,3.10
2018-04-11T04:11:10.188Z,2.80
2018-04-11T04:12:10.167Z,3.00
2018-04-11T04:13:10.157Z,3.20
2018-04-11T04:14:10.143Z,3.40
2018-04-11T04:15:10.134Z,2.90
2018-04-11T04:16:10.113Z,3.10
2018-04-11T04:17:10.096Z,3.10
2018-04-11T04:18:10.086Z,3.10
2018-04-11T04:19:10.065Z,3.00
2018-04-11T04:20:10.047Z,2.90
2018-04-11T04:21:10.032Z,3.10
2018-04-11T04:22:10.018Z,3.30
2018-04-11T04:23:10.003Z,3.30
2018-04-11T04:24:09.990Z,3.40
2018-04-11T04:25:09.984Z,3.00
2018-04-11T04:26:09.961Z,3.40
2018-04-11T04:27:09.941Z,3.70
2018-04-11T04:28:09.935Z,3.70
2018-04-11T04:29:09.921Z,3.30
2018-04-11T04:30:09.898Z,3.20
2018-04-11T04:31:09.883Z,3.70
2018-04-11T04:32:09.870Z,3.60
2018-04-11T04:33:09.851Z,2.80
2018-04-11T04:34:09.844Z,3.30
2018-04-11T04:35:09.823Z,3.20
2018-04-11T04:36:09.813Z,3.00
2018-04-11T04:37:09.799Z,3.30
2018-04-11T04:38:09.773Z,3.20
2018-04-11T04:39:09.766Z,3.50
2018-04-11T04:40:09.753Z,3.30
2018-04-11T04:41:09.736Z,3.70
2018-04-11T04:42:09.723Z,3.60
2018-04-11T04:43:09.704Z,4.40
2018-04-11T04:44:09.692Z,3.80
2018-04-11T04:45:09.676Z,4.10
2018-04-11T04:46:09.662Z,4.30
2018-04-11T04:47:09.645Z,4.00
2018-04-11T04:48:09.623Z,4.90
2018-04-11T04:49:09.611Z,4.50
2018-04-11T04:50:09.600Z,6.00
2018-04-11T04:51:09.594Z,7.30
2018-04-11T04:52:09.569Z,7.40
2018-04-11T04:53:09.558Z,6.70
2018-04-11T04:54:09.547Z,6.90
2018-04-11T04:55:09.518Z,7.00
2018-04-11T04:56:09.507Z,6.60
2018-04-11T04:57:09.488Z,5.70
2018-04-11T04:58:09.477Z,5.10
2018-04-11T04:59:09.461Z,5.40
2018-04-11T05:00:09.454Z,4.90
2018-04-11T05:01:09.436Z,4.00
2018-04-11T05:02:09.420Z,3.80
2018-04-11T05:03:09.402Z,4.00
2018-04-11T05:04:09.390Z,4.50
2018-04-11T05:05:09.373Z,3.10
2018-04-11T05:06:09.357Z,3.80
2018-04-11T05:07:09.338Z,3.70
2018-04-11T05:08:09.330Z,3.70
2018-04-11T05:09:09.315Z,4.10
2018-04-11T05:10:09.294Z,3.40
2018-04-11T05:11:09.281Z,4.10
2018-04-11T05:12:09.268Z,3.60
2018-04-11T05:13:09.253Z,3.40
2018-04-11T05:14:09.285Z,3.40
2018-04-11T05:15:09.218Z,3.90
2018-04-11T05:16:09.204Z,3.40
2018-04-11T05:17:09.194Z,3.20
2018-04-11T05:18:09.177Z,3.60
2018-04-11T05:19:09.158Z,3.30
2018-04-11T05:20:09.146Z,3.40
2018-04-11T05:21:09.130Z,3.80
2018-04-11T05:22:09.113Z,3.10
2018-04-11T05:23:09.100Z,3.80
2018-04-11T05:24:09.086Z,3.60
2018-04-11T05:25:09.067Z,3.10
2018-04-11T05:26:09.055Z,3.60
2018-04-11T05:27:09.038Z,3.50
2018-04-11T05:28:09.024Z,3.40
2018-04-11T05:29:09.010Z,3.80
2018-04-11T05:30:08.996Z,3.80
2018-04-11T05:31:08.980Z,3.60
2018-04-11T05:32:08.969Z,3.70
2018-04-11T05:33:08.949Z,3.50
2018-04-11T05:34:08.933Z,4.10
2018-04-11T05:35:08.918Z,3.40
2018-04-11T05:36:08.904Z,3.40
2018-04-11T05:37:08.894Z,3.80
2018-04-11T05:38:08.880Z,3.40
2018-04-11T05:39:08.862Z,3.70
2018-04-11T05:40:08.846Z,3.60
2018-04-11T05:41:08.842Z,3.60
2018-04-11T05:42:08.815Z,4.00
2018-04-11T05:43:08.802Z,3.50
2018-04-11T05:44:08.789Z,3.60
2018-04-11T05:45:08.781Z,4.00
2018-04-11T05:46:08.766Z,3.90
2018-04-11T05:47:08.746Z,3.70
2018-04-11T05:48:08.735Z,3.50
2018-04-11T05:49:08.717Z,3.60
2018-04-11T05:50:08.705Z,3.90
2018-04-11T05:51:08.688Z,4.10
2018-04-11T05:52:08.675Z,3.70
2018-04-11T05:53:08.709Z,4.00
2018-04-11T05:54:08.648Z,4.00
2018-04-11T05:55:08.639Z,3.80
2018-04-11T05:56:08.621Z,3.70
2018-04-11T05:57:08.605Z,4.10
2018-04-11T05:58:08.601Z,4.80
2018-04-11T05:59:08.581Z,4.20
2018-04-11T06:00:08.567Z,4.00
2018-04-11T06:01:08.554Z,3.80
2018-04-11T06:02:08.545Z,4.10
2018-04-11T06:03:08.526Z,3.80
2018-04-11T06:04:08.516Z,4.10
2018-04-11T06:05:08.502Z,4.10
2018-04-11T06:06:08.496Z,4.20
2018-04-11T06:07:08.477Z,4.10
2018-04-11T06:08:08.461Z,4.50
2018-04-11T06:09:08.450Z,4.10
2018-04-11T06:10:08.436Z,3.40
2018-04-11T06:11:08.423Z,3.20
2018-04-11T06:12:08.411Z,4.00
2018-04-11T06:13:08.398Z,4.00
2018-04-11T06:14:08.386Z,3.80
2018-04-11T06:15:08.380Z,4.50
2018-04-11T06:16:08.366Z,4.20
2018-04-11T06:17:08.358Z,4.20
2018-04-11T06:18:08.336Z,4.60
2018-04-11T06:19:08.323Z,3.90
2018-04-11T06:20:08.319Z,4.50
2018-04-11T06:21:08.303Z,4.10
2018-04-11T06:22:08.294Z,4.20
2018-04-11T06:23:08.278Z,4.00
2018-04-11T06:24:08.266Z,4.10
2018-04-11T06:25:08.277Z,4.00
2018-04-11T06:26:08.241Z,4.30
2018-04-11T06:27:08.227Z,4.50
2018-04-11T06:28:08.275Z,4.60
2018-04-11T06:29:08.204Z,4.20
2018-04-11T06:30:08.200Z,4.80
2018-04-11T06:31:08.180Z,4.50
2018-04-11T06:32:08.167Z,4.90
2018-04-11T06:33:08.164Z,4.20
2018-04-11T06:34:08.146Z,4.50
2018-04-11T06:35:08.196Z,4.40
2018-04-11T06:36:08.131Z,4.60
2018-04-11T06:37:08.119Z,4.40
2018-04-11T06:38:08.098Z,4.60
2018-04-11T06:39:08.090Z,4.70
2018-04-11T06:40:08.078Z,4.00
2018-04-11T06:41:08.065Z,4.10
2018-04-11T06:42:08.068Z,3.90
2018-04-11T06:43:08.050Z,4.50
2018-04-11T06:44:08.038Z,4.00
2018-04-11T06:45:08.028Z,4.10
2018-04-11T06:46:08.027Z,4.10
2018-04-11T06:47:08.005Z,5.10
2018-04-11T06:48:07.988Z,5.30
2018-04-11T06:49:07.976Z,5.30
2018-04-11T06:50:07.971Z,5.20
2018-04-11T06:51:07.958Z,5.30
2018-04-11T06:52:07.950Z,5.50
2018-04-11T06:53:07.936Z,5.10
2018-04-11T06:54:07.922Z,5.50
2018-04-11T06:55:07.913Z,5.00
2018-04-11T06:56:07.902Z,4.80
2018-04-11T06:57:07.897Z,5.30
2018-04-11T06:58:07.886Z,4.90
2018-04-11T06:59:07.877Z,5.10
2018-04-11T07:00:07.859Z,4.60
2018-04-11T07:01:07.847Z,5.40
2018-04-11T07:02:07.841Z,4.90
2018-04-11T07:03:07.829Z,4.70
2018-04-11T07:04:07.824Z,5.00
2018-04-11T07:05:07.813Z,4.70
2018-04-11T07:06:07.801Z,4.80
2018-04-11T07:07:07.787Z,4.70
2018-04-11T07:08:07.776Z,4.60
2018-04-11T07:09:07.768Z,5.20
2018-04-11T07:10:07.757Z,4.70
2018-04-11T07:11:07.747Z,4.80
2018-04-11T07:12:07.743Z,5.20
2018-04-11T07:13:07.726Z,5.10
2018-04-11T07:14:07.730Z,4.90
2018-04-11T07:15:07.713Z,4.60
2018-04-11T07:16:07.698Z,4.30
2018-04-11T07:17:07.686Z,4.50
2018-04-11T07:18:07.679Z,4.30
2018-04-11T07:19:07.668Z,4.60
2018-04-11T07:20:07.658Z,4.60
2018-04-11T07:21:07.653Z,5.40
2018-04-11T07:22:07.647Z,3.90
2018-04-11T07:23:07.629Z,4.70
2018-04-11T07:24:07.627Z,4.80
2018-04-11T07:25:07.619Z,4.20
2018-04-11T07:26:07.605Z,4.30
2018-04-11T07:27:07.599Z,4.50
2018-04-11T07:28:07.583Z,4.50
2018-04-11T07:29:07.580Z,4.40
2018-04-11T07:30:07.562Z,4.70
2018-04-11T07:31:07.558Z,4.20
2018-04-11T07:32:07.547Z,4.10
2018-04-11T07:33:07.537Z,4.20
2018-04-11T07:34:07.528Z,4.90
2018-04-11T07:35:07.524Z,4.40
2018-04-11T07:36:07.511Z,5.00
2018-04-11T07:37:07.499Z,6.10
2018-04-11T07:38:07.506Z,6.60
2018-04-11T07:39:07.488Z,6.70
2018-04-11T07:40:07.544Z,7.20
2018-04-11T07:41:07.486Z,7.20
2018-04-11T07:42:07.506Z,8.00
2018-04-11T07:43:07.451Z,7.30
2018-04-11T07:44:07.437Z,7.80
2018-04-11T07:45:07.427Z,8.60
2018-04-11T07:46:07.490Z,7.80
2018-04-11T07:47:07.417Z,8.20
2018-04-11T07:48:07.404Z,7.60
2018-04-11T07:49:07.393Z,8.40
2018-04-11T07:50:07.404Z,8.60
2018-04-11T07:51:07.372Z,8.10
2018-04-11T07:52:07.368Z,8.90
2018-04-11T07:53:07.350Z,9.00
2018-04-11T07:54:07.341Z,9.70
2018-04-11T07:55:07.331Z,8.90
2018-04-11T07:56:07.326Z,9.90
2018-04-11T07:57:07.313Z,9.40
2018-04-11T07:58:07.302Z,9.50
2018-04-11T07:59:07.292Z,9.30
2018-04-11T08:00:07.325Z,10.10
2018-04-11T08:01:07.273Z,9.00
2018-04-11T08:02:07.264Z,8.90
2018-04-11T08:03:07.278Z,9.10
2018-04-11T08:04:07.244Z,9.00
2018-04-11T08:05:07.237Z,9.60
2018-04-11T08:06:07.224Z,8.70
2018-04-11T08:07:07.216Z,9.20
2018-04-11T08:08:07.204Z,9.40
2018-04-11T08:09:07.195Z,10.00
2018-04-11T08:10:07.226Z,10.00
2018-04-11T08:11:07.175Z,9.60
2018-04-11T08:12:07.166Z,10.10
2018-04-11T08:13:07.155Z,9.30
2018-04-11T08:14:07.157Z,9.40
2018-04-11T08:15:07.135Z,9.80
2018-04-11T08:16:07.126Z,10.00
2018-04-11T08:17:07.116Z,8.90
2018-04-11T08:18:07.135Z,8.60
2018-04-11T08:19:07.096Z,8.60
2018-04-11T08:20:07.088Z,8.50
2018-04-11T08:21:07.084Z,8.40
2018-04-11T08:22:07.069Z,7.30
2018-04-11T08:23:07.057Z,7.80
2018-04-11T08:24:07.048Z,7.80
2018-04-11T08:25:07.039Z,8.20
2018-04-11T08:26:07.033Z,7.50
2018-04-11T08:27:07.020Z,8.40
2018-04-11T08:28:07.012Z,7.40
2018-04-11T08:29:07.009Z,7.60
2018-04-11T08:30:06.993Z,6.80
2018-04-11T08:31:06.989Z,6.70
2018-04-11T08:32:06.974Z,7.20
2018-04-11T08:33:06.964Z,6.40
2018-04-11T08:34:06.955Z,6.40
2018-04-11T08:35:06.950Z,5.80
2018-04-11T08:36:06.943Z,5.80
2018-04-11T08:37:06.927Z,5.90
2018-04-11T08:38:06.924Z,6.00
2018-04-11T08:39:06.917Z,6.30
2018-04-11T08:40:06.909Z,5.90
2018-04-11T08:41:06.896Z,6.10
2018-04-11T08:42:06.883Z,6.10
2018-04-11T08:43:06.872Z,5.60
2018-04-11T08:44:06.881Z,5.30
2018-04-11T08:45:06.859Z,5.60
2018-04-11T08:46:06.851Z,5.60
2018-04-11T08:47:06.840Z,5.80
2018-04-11T08:48:06.827Z,5.50
2018-04-11T08:49:06.824Z,5.90
2018-04-11T08:50:06.812Z,4.80
2018-04-11T08:51:06.805Z,5.50
2018-04-11T08:52:06.806Z,5.80
2018-04-11T08:53:06.784Z,4.70
2018-04-11T08:54:06.780Z,5.80
2018-04-11T08:55:06.768Z,5.30
2018-04-11T08:56:06.770Z,5.10
2018-04-11T08:57:06.747Z,5.20
2018-04-11T08:58:06.738Z,4.40
2018-04-11T08:59:06.729Z,5.10
2018-04-11T09:00:06.721Z,4.80
2018-04-11T09:01:06.711Z,4.60
2018-04-11T09:02:06.703Z,4.90
2018-04-11T09:03:06.699Z,5.40
2018-04-11T09:04:06.696Z,5.00
2018-04-11T09:05:06.675Z,5.10
2018-04-11T09:06:06.667Z,4.60
2018-04-11T09:07:06.659Z,4.60
2018-04-11T09:08:06.657Z,5.20
2018-04-11T09:09:06.641Z,5.10
2018-04-11T09:10:06.635Z,4.80
2018-04-11T09:11:06.625Z,5.10
2018-04-11T09:12:06.621Z,5.30
2018-04-11T09:13:06.607Z,5.90
2018-04-11T09:14:06.600Z,5.90
2018-04-11T09:15:06.590Z,5.50
2018-04-11T09:16:06.582Z,5.20
2018-04-11T09:17:06.572Z,4.80
2018-04-11T09:18:06.564Z,4.90
2018-04-11T09:19:06.555Z,5.10
2018-04-11T09:20:06.548Z,4.60
2018-04-11T09:21:06.541Z,4.90
2018-04-11T09:22:06.531Z,5.50
2018-04-11T09:23:06.525Z,5.00
2018-04-11T09:24:06.512Z,5.30
2018-04-11T09:25:06.503Z,5.30
2018-04-11T09:26:06.506Z,5.40
2018-04-11T09:27:06.488Z,5.50
2018-04-11T09:28:06.478Z,5.70
2018-04-11T09:29:06.474Z,5.80
2018-04-11T09:30:06.461Z,5.00
2018-04-11T09:31:06.452Z,5.30
2018-04-11T09:32:06.444Z,5.30
2018-04-11T09:33:06.466Z,5.50
2018-04-11T09:34:06.438Z,5.40
2018-04-11T09:35:06.420Z,5.40
2018-04-11T09:36:06.410Z,5.70
2018-04-11T09:37:06.401Z,5.00
2018-04-11T09:38:06.391Z,5.20
2018-04-11T09:39:06.384Z,4.90
2018-04-11T09:40:06.377Z,5.10
2018-04-11T09:41:06.369Z,5.30
2018-04-11T09:42:06.359Z,5.20
2018-04-11T09:43:06.351Z,4.60
2018-04-11T09:44:06.343Z,4.60
2018-04-11T09:45:06.338Z,4.70
2018-04-11T09:46:06.371Z,4.70
2018-04-11T09:47:06.321Z,4.60
2018-04-11T09:48:06.318Z,5.10
2018-04-11T09:49:06.313Z,4.70
2018-04-11T09:50:06.306Z,5.30
2018-04-11T09:51:06.294Z,4.40
2018-04-11T09:52:06.284Z,5.40
2018-04-11T09:53:06.272Z,4.40
2018-04-11T09:54:06.271Z,4.20
2018-04-11T09:55:06.257Z,3.70
2018-04-11T09:56:06.257Z,4.40
2018-04-11T09:57:06.239Z,3.60
2018-04-11T09:58:06.233Z,3.90
2018-04-11T09:59:06.226Z,3.50
2018-04-11T10:00:06.218Z,3.50
2018-04-11T10:01:06.209Z,4.10
2018-04-11T10:02:06.205Z,3.80
2018-04-11T10:03:06.191Z,3.30
2018-04-11T10:04:06.191Z,3.10
2018-04-11T10:05:06.180Z,3.30
2018-04-11T10:06:06.172Z,3.50
2018-04-11T10:07:06.168Z,3.30
2018-04-11T10:08:06.154Z,3.50
2018-04-11T10:09:06.148Z,3.10
2018-04-11T10:10:06.145Z,3.00
2018-04-11T10:11:06.143Z,3.00
2018-04-11T10:12:06.133Z,2.90
2018-04-11T10:13:06.122Z,2.80
2018-04-11T10:14:06.117Z,2.60
2018-04-11T10:15:06.108Z,2.50
2018-04-11T10:16:06.103Z,2.60
2018-04-11T10:17:06.086Z,2.40
2018-04-11T10:18:06.080Z,3.10
2018-04-11T10:19:06.149Z,2.90
2018-04-11T10:20:06.074Z,3.10
2018-04-11T10:21:06.060Z,2.50
2018-04-11T10:22:06.071Z,2.80
2018-04-11T10:23:06.046Z,3.00
2018-04-11T10:24:06.034Z,2.80
2018-04-11T10:25:06.031Z,2.80
2018-04-11T10:26:06.023Z,2.50
2018-04-11T10:27:06.012Z,3.00
2018-04-11T10:28:06.005Z,3.10
2018-04-11T10:29:06.001Z,2.80
2018-04-11T10:30:05.987Z,3.20
2018-04-11T10:31:05.987Z,3.60
2018-04-11T10:32:05.977Z,2.90
2018-04-11T10:33:05.967Z,3.40
2018-04-11T10:34:05.958Z,2.90
2018-04-11T10:35:05.954Z,3.30
2018-04-11T10:36:05.945Z,2.80
2018-04-11T10:37:05.938Z,3.10
2018-04-11T10:38:05.944Z,3.00
2018-04-11T10:39:05.930Z,2.90
2018-04-11T10:40:05.913Z,3.00
2018-04-11T10:41:05.906Z,2.60
2018-04-11T10:42:05.907Z,2.70
2018-04-11T10:43:05.900Z,3.00
2018-04-11T10:44:05.893Z,3.00
2018-04-11T10:45:05.878Z,3.30
2018-04-11T10:46:05.879Z,3.60
2018-04-11T10:47:05.867Z,3.20
2018-04-11T10:48:05.860Z,2.80
2018-04-11T10:49:05.852Z,3.30
2018-04-11T10:50:05.843Z,3.20
2018-04-11T10:51:05.835Z,3.50
2018-04-11T10:52:05.829Z,3.80
2018-04-11T10:53:05.830Z,3.40
2018-04-11T10:54:05.818Z,3.30
2018-04-11T10:55:05.807Z,3.40
2018-04-11T10:56:05.810Z,3.30
2018-04-11T10:57:05.796Z,2.60
2018-04-11T10:58:05.792Z,2.90
2018-04-11T10:59:05.782Z,2.80
2018-04-11T11:00:05.773Z,2.60
2018-04-11T11:01:05.765Z,2.90
2018-04-11T11:02:05.760Z,2.50
2018-04-11T11:03:05.753Z,2.70
2018-04-11T11:04:05.746Z,2.40
2018-04-11T11:05:05.744Z,2.80
2018-04-11T11:06:05.736Z,2.70
2018-04-11T11:07:05.733Z,3.00
2018-04-11T11:08:05.721Z,2.80
2018-04-11T11:09:05.711Z,2.60
2018-04-11T11:10:05.706Z,2.60
2018-04-11T11:11:05.699Z,2.30
2018-04-11T11:12:05.703Z,2.70
2018-04-11T11:13:05.687Z,2.30
2018-04-11T11:14:05.680Z,2.30
2018-04-11T11:15:05.676Z,2.30
2018-04-11T11:16:05.667Z,2.20
2018-04-11T11:17:05.665Z,2.60
2018-04-11T11:18:05.655Z,2.10
2018-04-11T11:19:05.648Z,2.10
2018-04-11T11:20:05.644Z,2.30
2018-04-11T11:21:05.648Z,2.40
2018-04-11T11:22:05.637Z,2.00
2018-04-11T11:23:05.622Z,2.00
2018-04-11T11:24:05.619Z,2.20
2018-04-11T11:25:05.612Z,1.90
2018-04-11T11:26:05.604Z,2.00
2018-04-11T11:27:05.600Z,1.90
2018-04-11T11:28:05.592Z,1.80
2018-04-11T11:29:05.594Z,2.10
2018-04-11T11:30:05.582Z,2.00
2018-04-11T11:31:05.582Z,2.00
2018-04-11T11:32:05.575Z,2.70
2018-04-11T11:33:05.579Z,2.70
2018-04-11T11:34:05.556Z,2.50
2018-04-11T11:35:05.552Z,2.10
2018-04-11T11:36:05.555Z,2.20
2018-04-11T11:37:05.536Z,2.10
2018-04-11T11:38:05.544Z,2.10
2018-04-11T11:39:05.526Z,2.10
2018-04-11T11:40:05.518Z,1.90
2018-04-11T11:41:05.514Z,2.00
2018-04-11T11:42:05.507Z,2.10
2018-04-11T11:43:05.504Z,2.40
2018-04-11T11:44:05.506Z,1.60
2018-04-11T11:45:05.494Z,1.90
2018-04-11T11:46:05.490Z,2.20
2018-04-11T11:47:05.482Z,1.90
2018-04-11T11:48:05.471Z,1.90
2018-04-11T11:49:05.475Z,1.80
2018-04-11T11:50:05.459Z,1.90
2018-04-11T11:51:05.463Z,2.00
2018-04-11T11:52:05.471Z,1.80
2018-04-11T11:53:05.453Z,1.70
2018-04-11T11:54:05.437Z,1.60
2018-04-11T11:55:05.429Z,1.50
2018-04-11T11:56:05.431Z,1.70
2018-04-11T11:57:05.421Z,2.00
2018-04-11T11:58:05.415Z,1.40
2018-04-11T11:59:05.410Z,1.70
2018-04-11T12:00:05.401Z,1.90
2018-04-11T12:01:05.394Z,1.70
2018-04-11T12:02:05.392Z,2.10
2018-04-11T12:03:05.392Z,2.00
2018-04-11T12:04:05.378Z,1.60
2018-04-11T12:05:05.371Z,2.00
2018-04-11T12:06:05.374Z,2.20
2018-04-11T12:07:05.360Z,1.80
2018-04-11T12:08:05.358Z,2.00
2018-04-11T12:09:05.351Z,2.00
2018-04-11T12:10:05.346Z,1.90
2018-04-11T12:11:05.339Z,1.50
2018-04-11T12:12:05.333Z,2.00
2018-04-11T12:13:05.333Z,1.80
2018-04-11T12:14:05.328Z,1.50
2018-04-11T12:15:05.325Z,1.60
2018-04-11T12:16:05.314Z,1.90
2018-04-11T12:17:05.305Z,1.50
2018-04-11T12:18:05.303Z,1.60
2018-04-11T12:19:05.298Z,1.80
2018-04-11T12:20:05.296Z,1.50
2018-04-11T12:21:05.283Z,1.70
2018-04-11T12:22:05.279Z,1.70
2018-04-11T12:23:05.274Z,1.60
2018-04-11T12:24:05.272Z,1.50
2018-04-11T12:25:05.269Z,1.40
2018-04-11T12:26:05.259Z,1.60
2018-04-11T12:27:05.258Z,1.60
2018-04-11T12:28:05.252Z,1.40
2018-04-11T12:29:05.244Z,1.30
2018-04-11T12:30:05.238Z,1.50
2018-04-11T12:31:05.231Z,1.60
2018-04-11T12:32:05.284Z,1.60
2018-04-11T12:33:05.225Z,1.80
2018-04-11T12:34:05.221Z,1.60
2018-04-11T12:35:05.210Z,1.50
2018-04-11T12:36:05.210Z,1.90
2018-04-11T12:37:05.197Z,1.80
2018-04-11T12:38:05.195Z,2.20
2018-04-11T12:39:05.189Z,1.50
2018-04-11T12:40:05.184Z,1.60
2018-04-11T12:41:05.184Z,1.50
2018-04-11T12:42:05.174Z,1.70
2018-04-11T12:43:05.171Z,1.90
2018-04-11T12:44:05.167Z,1.70
2018-04-11T12:45:05.161Z,1.80
2018-04-11T12:46:05.187Z,2.00
2018-04-11T12:47:05.152Z,1.70
2018-04-11T12:48:05.144Z,2.10
2018-04-11T12:49:05.140Z,1.80
2018-04-11T12:50:05.139Z,1.70
2018-04-11T12:51:05.127Z,1.80
2018-04-11T12:52:05.128Z,1.80
2018-04-11T12:53:05.117Z,1.80
2018-04-11T12:54:05.112Z,1.80
2018-04-11T12:55:05.107Z,1.60
2018-04-11T12:56:05.105Z,1.70
2018-04-11T12:57:05.096Z,1.90
2018-04-11T12:58:05.096Z,2.10
2018-04-11T12:59:05.088Z,1.80
2018-04-11T13:00:05.090Z,1.50
2018-04-11T13:01:05.093Z,1.80
2018-04-11T13:02:05.074Z,1.80
2018-04-11T13:03:05.072Z,2.00
2018-04-11T13:04:05.067Z,1.90
2018-04-11T13:05:05.066Z,1.80
2018-04-11T13:06:05.053Z,1.90
2018-04-11T13:07:05.048Z,2.00
2018-04-11T13:08:05.050Z,2.10
2018-04-11T13:09:05.096Z,2.10
2018-04-11T13:10:05.037Z,1.90
2018-04-11T13:11:05.036Z,1.80
2018-04-11T13:12:05.028Z,1.90
2018-04-11T13:13:05.026Z,1.90
2018-04-11T13:14:05.022Z,1.40
2018-04-11T13:15:05.098Z,2.10
2018-04-11T13:16:05.004Z,1.90
2018-04-11T13:17:05.008Z,2.20
2018-04-11T13:18:04.997Z,1.70